sensor_id;sensor_type;location;lat;lon;timestamp;P1;durP1;ratioP1;P2;durP2;ratioP2
4563;SDS011;2294;51.818;8.484;2024-02-21T00:01:52;18.53;;;7.23;;
4563;SDS011;2294;51.818;8.484;2024-02-21T00:04:19;22.30;;;7.40;;
4563;SDS011;2294;51.818;8.484;2024-02-21T00:06:46;13.93;;;7.27;;
4563;SDS011;2294;51.818;8.484;2024-02-21T00:09:14;18.20;;;6.87;;
4563;SDS011;2294;51.818;8.484;2024-02-21T00:11:41;20.07;;;8.37;;
4563;SDS011;2294;51.818;8.484;2024-02-21T00:14:10;19.67;;;7.60;;
4563;SDS011;2294;51.818;8.484;2024-02-21T00:16:37;13.63;;;6.70;;
4563;SDS011;2294;51.818;8.484;2024-02-21T00:19:04;27.67;;;7.13;;
4563;SDS011;2294;51.818;8.484;2024-02-21T00:21:31;19.07;;;8.10;;
4563;SDS011;2294;51.818;8.484;2024-02-21T00:23:58;19.27;;;8.30;;
4563;SDS011;2294;51.818;8.484;2024-02-21T00:26:25;20.83;;;8.50;;
4563;SDS011;2294;51.818;8.484;2024-02-21T00:28:52;24.63;;;7.93;;
4563;SDS011;2294;51.818;8.484;2024-02-21T00:31:21;20.53;;;7.60;;
4563;SDS011;2294;51.818;8.484;2024-02-21T00:33:48;29.77;;;8.70;;
4563;SDS011;2294;51.818;8.484;2024-02-21T00:36:16;20.47;;;7.63;;
4563;SDS011;2294;51.818;8.484;2024-02-21T00:38:43;16.47;;;7.83;;
4563;SDS011;2294;51.818;8.484;2024-02-21T00:41:10;30.60;;;7.23;;
4563;SDS011;2294;51.818;8.484;2024-02-21T00:43:38;28.03;;;7.53;;
4563;SDS011;2294;51.818;8.484;2024-02-21T00:46:05;22.27;;;8.00;;
4563;SDS011;2294;51.818;8.484;2024-02-21T00:48:34;17.70;;;7.93;;
4563;SDS011;2294;51.818;8.484;2024-02-21T00:51:01;23.27;;;7.90;;
4563;SDS011;2294;51.818;8.484;2024-02-21T00:53:28;25.53;;;7.00;;
4563;SDS011;2294;51.818;8.484;2024-02-21T00:55:55;28.73;;;9.07;;
4563;SDS011;2294;51.818;8.484;2024-02-21T00:58:22;24.50;;;7.47;;
4563;SDS011;2294;51.818;8.484;2024-02-21T01:00:50;23.03;;;7.77;;
4563;SDS011;2294;51.818;8.484;2024-02-21T01:03:17;20.97;;;9.00;;
4563;SDS011;2294;51.818;8.484;2024-02-21T01:05:45;22.67;;;8.80;;
4563;SDS011;2294;51.818;8.484;2024-02-21T01:08:12;20.67;;;8.10;;
4563;SDS011;2294;51.818;8.484;2024-02-21T01:10:40;30.33;;;8.80;;
4563;SDS011;2294;51.818;8.484;2024-02-21T01:13:07;18.03;;;8.13;;
4563;SDS011;2294;51.818;8.484;2024-02-21T01:15:34;25.47;;;10.20;;
4563;SDS011;2294;51.818;8.484;2024-02-21T01:18:02;21.37;;;9.13;;
4563;SDS011;2294;51.818;8.484;2024-02-21T01:20:30;23.50;;;7.87;;
4563;SDS011;2294;51.818;8.484;2024-02-21T01:22:58;28.77;;;9.87;;
4563;SDS011;2294;51.818;8.484;2024-02-21T01:25:25;18.00;;;8.50;;
4563;SDS011;2294;51.818;8.484;2024-02-21T01:27:52;23.13;;;9.20;;
4563;SDS011;2294;51.818;8.484;2024-02-21T01:30:20;16.93;;;8.47;;
4563;SDS011;2294;51.818;8.484;2024-02-21T01:32:47;29.40;;;10.70;;
4563;SDS011;2294;51.818;8.484;2024-02-21T01:35:14;22.67;;;10.27;;
4563;SDS011;2294;51.818;8.484;2024-02-21T01:37:41;18.13;;;8.07;;
4563;SDS011;2294;51.818;8.484;2024-02-21T01:40:10;26.60;;;9.33;;
4563;SDS011;2294;51.818;8.484;2024-02-21T01:42:38;21.90;;;8.37;;
4563;SDS011;2294;51.818;8.484;2024-02-21T01:45:06;26.63;;;9.40;;
4563;SDS011;2294;51.818;8.484;2024-02-21T01:47:33;25.97;;;10.57;;
4563;SDS011;2294;51.818;8.484;2024-02-21T01:50:00;29.87;;;10.10;;
4563;SDS011;2294;51.818;8.484;2024-02-21T01:52:28;18.00;;;9.10;;
4563;SDS011;2294;51.818;8.484;2024-02-21T01:54:56;27.30;;;10.97;;
4563;SDS011;2294;51.818;8.484;2024-02-21T01:57:25;23.37;;;10.27;;
4563;SDS011;2294;51.818;8.484;2024-02-21T01:59:53;20.93;;;11.47;;
4563;SDS011;2294;51.818;8.484;2024-02-21T02:02:21;27.13;;;9.47;;
4563;SDS011;2294;51.818;8.484;2024-02-21T02:04:48;15.60;;;7.80;;
4563;SDS011;2294;51.818;8.484;2024-02-21T02:07:15;30.97;;;9.43;;
4563;SDS011;2294;51.818;8.484;2024-02-21T02:09:43;22.13;;;10.57;;
4563;SDS011;2294;51.818;8.484;2024-02-21T02:12:10;28.00;;;9.57;;
4563;SDS011;2294;51.818;8.484;2024-02-21T02:14:38;22.53;;;11.00;;
4563;SDS011;2294;51.818;8.484;2024-02-21T02:17:05;21.77;;;9.30;;
4563;SDS011;2294;51.818;8.484;2024-02-21T02:19:34;20.87;;;9.17;;
4563;SDS011;2294;51.818;8.484;2024-02-21T02:22:08;23.40;;;10.10;;
4563;SDS011;2294;51.818;8.484;2024-02-21T02:24:37;18.20;;;9.47;;
4563;SDS011;2294;51.818;8.484;2024-02-21T02:27:05;20.83;;;9.03;;
4563;SDS011;2294;51.818;8.484;2024-02-21T02:29:32;27.33;;;10.10;;
4563;SDS011;2294;51.818;8.484;2024-02-21T02:31:59;22.80;;;9.33;;
4563;SDS011;2294;51.818;8.484;2024-02-21T02:34:26;17.17;;;8.67;;
4563;SDS011;2294;51.818;8.484;2024-02-21T02:36:53;23.63;;;9.10;;
4563;SDS011;2294;51.818;8.484;2024-02-21T02:39:21;31.70;;;9.73;;
4563;SDS011;2294;51.818;8.484;2024-02-21T02:41:49;16.43;;;8.23;;
4563;SDS011;2294;51.818;8.484;2024-02-21T02:44:16;16.77;;;8.47;;
4563;SDS011;2294;51.818;8.484;2024-02-21T02:46:43;19.77;;;9.10;;
4563;SDS011;2294;51.818;8.484;2024-02-21T02:49:11;25.57;;;9.77;;
4563;SDS011;2294;51.818;8.484;2024-02-21T02:51:40;18.80;;;7.87;;
4563;SDS011;2294;51.818;8.484;2024-02-21T02:54:08;19.43;;;10.40;;
4563;SDS011;2294;51.818;8.484;2024-02-21T02:56:35;24.97;;;9.73;;
4563;SDS011;2294;51.818;8.484;2024-02-21T02:59:03;19.40;;;9.77;;
4563;SDS011;2294;51.818;8.484;2024-02-21T03:01:33;25.93;;;10.10;;
4563;SDS011;2294;51.818;8.484;2024-02-21T03:04:00;22.07;;;9.87;;
4563;SDS011;2294;51.818;8.484;2024-02-21T03:06:28;22.73;;;10.10;;
4563;SDS011;2294;51.818;8.484;2024-02-21T03:08:55;23.00;;;9.70;;
4563;SDS011;2294;51.818;8.484;2024-02-21T03:11:22;19.03;;;9.10;;
4563;SDS011;2294;51.818;8.484;2024-02-21T03:13:54;21.97;;;8.87;;
4563;SDS011;2294;51.818;8.484;2024-02-21T03:16:23;22.30;;;9.07;;
4563;SDS011;2294;51.818;8.484;2024-02-21T03:18:50;17.07;;;9.27;;
4563;SDS011;2294;51.818;8.484;2024-02-21T03:21:17;15.87;;;9.40;;
4563;SDS011;2294;51.818;8.484;2024-02-21T03:23:44;18.20;;;8.17;;
4563;SDS011;2294;51.818;8.484;2024-02-21T03:26:12;26.60;;;9.10;;
4563;SDS011;2294;51.818;8.484;2024-02-21T03:28:42;19.17;;;8.90;;
4563;SDS011;2294;51.818;8.484;2024-02-21T03:31:10;20.43;;;8.30;;
4563;SDS011;2294;51.818;8.484;2024-02-21T03:33:40;23.73;;;7.47;;
4563;SDS011;2294;51.818;8.484;2024-02-21T03:36:12;23.40;;;7.90;;
4563;SDS011;2294;51.818;8.484;2024-02-21T03:38:39;18.63;;;9.00;;
4563;SDS011;2294;51.818;8.484;2024-02-21T03:41:06;21.80;;;8.53;;
4563;SDS011;2294;51.818;8.484;2024-02-21T03:43:34;16.73;;;7.83;;
4563;SDS011;2294;51.818;8.484;2024-02-21T03:46:01;16.20;;;7.57;;
4563;SDS011;2294;51.818;8.484;2024-02-21T03:48:28;17.20;;;6.77;;
4563;SDS011;2294;51.818;8.484;2024-02-21T03:50:56;24.90;;;7.23;;
4563;SDS011;2294;51.818;8.484;2024-02-21T03:53:24;19.83;;;7.20;;
4563;SDS011;2294;51.818;8.484;2024-02-21T03:55:51;26.10;;;9.57;;
4563;SDS011;2294;51.818;8.484;2024-02-21T03:58:18;20.43;;;7.60;;
4563;SDS011;2294;51.818;8.484;2024-02-21T04:00:45;19.63;;;7.10;;
4563;SDS011;2294;51.818;8.484;2024-02-21T04:03:12;16.87;;;8.50;;
4563;SDS011;2294;51.818;8.484;2024-02-21T04:05:40;31.43;;;8.47;;
4563;SDS011;2294;51.818;8.484;2024-02-21T04:08:08;15.10;;;6.87;;
4563;SDS011;2294;51.818;8.484;2024-02-21T04:10:35;18.20;;;7.30;;
4563;SDS011;2294;51.818;8.484;2024-02-21T04:13:03;20.07;;;8.10;;
4563;SDS011;2294;51.818;8.484;2024-02-21T04:15:30;15.70;;;6.80;;
4563;SDS011;2294;51.818;8.484;2024-02-21T04:17:57;29.30;;;8.27;;
4563;SDS011;2294;51.818;8.484;2024-02-21T04:20:25;18.83;;;8.30;;
4563;SDS011;2294;51.818;8.484;2024-02-21T04:22:52;19.20;;;6.47;;
4563;SDS011;2294;51.818;8.484;2024-02-21T04:25:20;17.13;;;7.70;;
4563;SDS011;2294;51.818;8.484;2024-02-21T04:27:48;20.80;;;7.80;;
4563;SDS011;2294;51.818;8.484;2024-02-21T04:30:15;20.80;;;7.50;;
4563;SDS011;2294;51.818;8.484;2024-02-21T04:32:42;15.57;;;7.40;;
4563;SDS011;2294;51.818;8.484;2024-02-21T04:35:10;24.47;;;7.10;;
4563;SDS011;2294;51.818;8.484;2024-02-21T04:37:37;18.50;;;7.50;;
4563;SDS011;2294;51.818;8.484;2024-02-21T04:40:04;16.80;;;6.20;;
4563;SDS011;2294;51.818;8.484;2024-02-21T04:42:33;28.67;;;7.70;;
4563;SDS011;2294;51.818;8.484;2024-02-21T04:45:00;17.97;;;6.80;;
4563;SDS011;2294;51.818;8.484;2024-02-21T04:47:27;15.20;;;7.30;;
4563;SDS011;2294;51.818;8.484;2024-02-21T04:49:54;22.47;;;8.20;;
4563;SDS011;2294;51.818;8.484;2024-02-21T04:52:22;15.07;;;6.33;;
4563;SDS011;2294;51.818;8.484;2024-02-21T04:54:49;15.30;;;7.83;;
4563;SDS011;2294;51.818;8.484;2024-02-21T04:57:16;15.80;;;7.47;;
4563;SDS011;2294;51.818;8.484;2024-02-21T04:59:45;22.37;;;7.97;;
4563;SDS011;2294;51.818;8.484;2024-02-21T05:02:12;17.90;;;7.57;;
4563;SDS011;2294;51.818;8.484;2024-02-21T05:04:39;15.23;;;7.30;;
4563;SDS011;2294;51.818;8.484;2024-02-21T05:07:07;13.97;;;7.10;;
4563;SDS011;2294;51.818;8.484;2024-02-21T05:09:36;24.33;;;7.20;;
4563;SDS011;2294;51.818;8.484;2024-02-21T05:12:03;16.17;;;7.30;;
4563;SDS011;2294;51.818;8.484;2024-02-21T05:14:30;13.60;;;6.50;;
4563;SDS011;2294;51.818;8.484;2024-02-21T05:16:59;19.43;;;6.70;;
4563;SDS011;2294;51.818;8.484;2024-02-21T05:19:26;21.73;;;7.90;;
4563;SDS011;2294;51.818;8.484;2024-02-21T05:21:53;19.53;;;7.27;;
4563;SDS011;2294;51.818;8.484;2024-02-21T05:24:20;16.23;;;8.37;;
4563;SDS011;2294;51.818;8.484;2024-02-21T05:26:47;24.20;;;7.63;;
4563;SDS011;2294;51.818;8.484;2024-02-21T05:29:14;32.87;;;7.10;;
4563;SDS011;2294;51.818;8.484;2024-02-21T05:31:54;17.57;;;7.20;;
4563;SDS011;2294;51.818;8.484;2024-02-21T05:34:23;13.50;;;6.33;;
4563;SDS011;2294;51.818;8.484;2024-02-21T05:36:51;12.97;;;6.90;;
4563;SDS011;2294;51.818;8.484;2024-02-21T05:39:18;12.70;;;6.20;;
4563;SDS011;2294;51.818;8.484;2024-02-21T05:41:47;13.50;;;7.03;;
4563;SDS011;2294;51.818;8.484;2024-02-21T05:44:15;15.50;;;6.30;;
4563;SDS011;2294;51.818;8.484;2024-02-21T05:46:42;15.03;;;7.00;;
4563;SDS011;2294;51.818;8.484;2024-02-21T05:49:09;12.00;;;6.50;;
4563;SDS011;2294;51.818;8.484;2024-02-21T05:51:37;24.43;;;7.80;;
4563;SDS011;2294;51.818;8.484;2024-02-21T05:54:05;18.40;;;7.30;;
4563;SDS011;2294;51.818;8.484;2024-02-21T05:56:32;16.70;;;6.67;;
4563;SDS011;2294;51.818;8.484;2024-02-21T05:59:00;11.50;;;6.43;;
4563;SDS011;2294;51.818;8.484;2024-02-21T06:01:27;22.77;;;7.73;;
4563;SDS011;2294;51.818;8.484;2024-02-21T06:03:54;13.13;;;5.80;;
4563;SDS011;2294;51.818;8.484;2024-02-21T06:06:21;16.80;;;7.53;;
4563;SDS011;2294;51.818;8.484;2024-02-21T06:08:49;18.33;;;6.70;;
4563;SDS011;2294;51.818;8.484;2024-02-21T06:11:17;23.10;;;7.57;;
4563;SDS011;2294;51.818;8.484;2024-02-21T06:13:44;24.17;;;8.50;;
4563;SDS011;2294;51.818;8.484;2024-02-21T06:16:11;12.97;;;6.10;;
4563;SDS011;2294;51.818;8.484;2024-02-21T06:18:38;18.07;;;6.27;;
4563;SDS011;2294;51.818;8.484;2024-02-21T06:21:05;18.57;;;7.83;;
4563;SDS011;2294;51.818;8.484;2024-02-21T06:23:32;14.67;;;6.33;;
4563;SDS011;2294;51.818;8.484;2024-02-21T06:26:01;14.10;;;6.37;;
4563;SDS011;2294;51.818;8.484;2024-02-21T06:28:28;14.50;;;6.80;;
4563;SDS011;2294;51.818;8.484;2024-02-21T06:30:55;12.43;;;5.67;;
4563;SDS011;2294;51.818;8.484;2024-02-21T06:33:22;15.57;;;6.90;;
4563;SDS011;2294;51.818;8.484;2024-02-21T06:35:50;18.87;;;6.23;;
4563;SDS011;2294;51.818;8.484;2024-02-21T06:38:18;17.43;;;6.60;;
4563;SDS011;2294;51.818;8.484;2024-02-21T06:40:45;25.53;;;6.50;;
4563;SDS011;2294;51.818;8.484;2024-02-21T06:43:17;14.50;;;6.07;;
4563;SDS011;2294;51.818;8.484;2024-02-21T06:45:45;9.97;;;6.10;;
4563;SDS011;2294;51.818;8.484;2024-02-21T06:48:15;14.97;;;7.13;;
4563;SDS011;2294;51.818;8.484;2024-02-21T06:50:42;14.87;;;5.80;;
4563;SDS011;2294;51.818;8.484;2024-02-21T06:53:10;22.13;;;7.20;;
4563;SDS011;2294;51.818;8.484;2024-02-21T06:55:37;15.73;;;6.23;;
4563;SDS011;2294;51.818;8.484;2024-02-21T06:58:04;19.10;;;7.00;;
4563;SDS011;2294;51.818;8.484;2024-02-21T07:00:35;16.97;;;7.00;;
4563;SDS011;2294;51.818;8.484;2024-02-21T07:03:02;21.47;;;6.47;;
4563;SDS011;2294;51.818;8.484;2024-02-21T07:05:29;14.87;;;6.23;;
4563;SDS011;2294;51.818;8.484;2024-02-21T07:07:56;13.93;;;6.17;;
4563;SDS011;2294;51.818;8.484;2024-02-21T07:10:23;20.53;;;6.33;;
4563;SDS011;2294;51.818;8.484;2024-02-21T07:12:50;18.83;;;6.87;;
4563;SDS011;2294;51.818;8.484;2024-02-21T07:15:18;19.60;;;6.60;;
4563;SDS011;2294;51.818;8.484;2024-02-21T07:17:46;15.30;;;6.40;;
4563;SDS011;2294;51.818;8.484;2024-02-21T07:20:13;21.63;;;6.80;;
4563;SDS011;2294;51.818;8.484;2024-02-21T07:22:40;14.90;;;5.47;;
4563;SDS011;2294;51.818;8.484;2024-02-21T07:25:08;13.90;;;6.20;;
4563;SDS011;2294;51.818;8.484;2024-02-21T07:27:35;17.50;;;5.50;;
4563;SDS011;2294;51.818;8.484;2024-02-21T07:30:02;17.50;;;6.40;;
4563;SDS011;2294;51.818;8.484;2024-02-21T07:32:30;14.97;;;6.00;;
4563;SDS011;2294;51.818;8.484;2024-02-21T07:34:58;13.77;;;6.13;;
4563;SDS011;2294;51.818;8.484;2024-02-21T07:37:25;18.90;;;6.97;;
4563;SDS011;2294;51.818;8.484;2024-02-21T07:39:52;19.27;;;5.90;;
4563;SDS011;2294;51.818;8.484;2024-02-21T07:42:19;11.67;;;5.47;;
4563;SDS011;2294;51.818;8.484;2024-02-21T07:44:47;12.40;;;6.27;;
4563;SDS011;2294;51.818;8.484;2024-02-21T07:47:14;16.50;;;5.57;;
4563;SDS011;2294;51.818;8.484;2024-02-21T07:49:41;14.40;;;6.00;;
4563;SDS011;2294;51.818;8.484;2024-02-21T07:52:10;19.53;;;5.83;;
4563;SDS011;2294;51.818;8.484;2024-02-21T07:54:37;11.43;;;4.90;;
4563;SDS011;2294;51.818;8.484;2024-02-21T07:57:04;12.67;;;6.37;;
4563;SDS011;2294;51.818;8.484;2024-02-21T07:59:31;12.00;;;5.20;;
4563;SDS011;2294;51.818;8.484;2024-02-21T08:01:58;13.57;;;6.23;;
4563;SDS011;2294;51.818;8.484;2024-02-21T08:04:25;18.90;;;5.27;;
4563;SDS011;2294;51.818;8.484;2024-02-21T08:06:53;12.27;;;5.17;;
4563;SDS011;2294;51.818;8.484;2024-02-21T08:09:22;10.40;;;5.03;;
4563;SDS011;2294;51.818;8.484;2024-02-21T08:11:49;15.13;;;6.03;;
4563;SDS011;2294;51.818;8.484;2024-02-21T08:14:16;19.80;;;5.77;;
4563;SDS011;2294;51.818;8.484;2024-02-21T08:16:44;14.53;;;6.20;;
4563;SDS011;2294;51.818;8.484;2024-02-21T08:19:11;10.90;;;5.30;;
4563;SDS011;2294;51.818;8.484;2024-02-21T08:21:38;10.47;;;4.87;;
4563;SDS011;2294;51.818;8.484;2024-02-21T08:24:05;15.47;;;5.50;;
4563;SDS011;2294;51.818;8.484;2024-02-21T08:26:34;11.60;;;4.80;;
4563;SDS011;2294;51.818;8.484;2024-02-21T08:29:01;10.77;;;5.13;;
4563;SDS011;2294;51.818;8.484;2024-02-21T08:31:28;9.33;;;4.53;;
4563;SDS011;2294;51.818;8.484;2024-02-21T08:33:57;16.97;;;4.93;;
4563;SDS011;2294;51.818;8.484;2024-02-21T08:36:28;13.13;;;5.70;;
4563;SDS011;2294;51.818;8.484;2024-02-21T08:38:55;8.23;;;4.17;;
4563;SDS011;2294;51.818;8.484;2024-02-21T08:41:23;11.10;;;5.00;;
4563;SDS011;2294;51.818;8.484;2024-02-21T08:43:51;8.13;;;4.40;;
4563;SDS011;2294;51.818;8.484;2024-02-21T08:46:19;11.07;;;4.97;;
4563;SDS011;2294;51.818;8.484;2024-02-21T08:48:47;7.23;;;3.53;;
4563;SDS011;2294;51.818;8.484;2024-02-21T08:51:14;9.60;;;4.17;;
4563;SDS011;2294;51.818;8.484;2024-02-21T08:53:41;8.93;;;3.80;;
4563;SDS011;2294;51.818;8.484;2024-02-21T08:56:08;10.30;;;4.07;;
4563;SDS011;2294;51.818;8.484;2024-02-21T08:58:36;11.77;;;3.77;;
4563;SDS011;2294;51.818;8.484;2024-02-21T09:01:04;10.40;;;4.00;;
4563;SDS011;2294;51.818;8.484;2024-02-21T09:03:35;7.20;;;3.10;;
4563;SDS011;2294;51.818;8.484;2024-02-21T09:06:03;8.00;;;3.50;;
4563;SDS011;2294;51.818;8.484;2024-02-21T09:08:30;8.30;;;3.77;;
4563;SDS011;2294;51.818;8.484;2024-02-21T09:10:58;5.70;;;3.50;;
4563;SDS011;2294;51.818;8.484;2024-02-21T09:13:26;6.37;;;3.00;;
4563;SDS011;2294;51.818;8.484;2024-02-21T09:15:53;5.80;;;3.00;;
4563;SDS011;2294;51.818;8.484;2024-02-21T09:18:22;9.67;;;3.77;;
4563;SDS011;2294;51.818;8.484;2024-02-21T09:20:49;4.37;;;3.03;;
4563;SDS011;2294;51.818;8.484;2024-02-21T09:23:17;9.37;;;3.47;;
4563;SDS011;2294;51.818;8.484;2024-02-21T09:25:44;12.37;;;3.37;;
4563;SDS011;2294;51.818;8.484;2024-02-21T09:28:12;8.10;;;3.10;;
4563;SDS011;2294;51.818;8.484;2024-02-21T09:30:39;7.87;;;3.50;;
4563;SDS011;2294;51.818;8.484;2024-02-21T09:33:06;11.70;;;3.60;;
4563;SDS011;2294;51.818;8.484;2024-02-21T09:35:34;8.53;;;3.17;;
4563;SDS011;2294;51.818;8.484;2024-02-21T09:38:02;10.83;;;3.37;;
4563;SDS011;2294;51.818;8.484;2024-02-21T09:40:30;9.93;;;4.33;;
4563;SDS011;2294;51.818;8.484;2024-02-21T09:42:59;9.90;;;4.03;;
4563;SDS011;2294;51.818;8.484;2024-02-21T09:45:29;14.70;;;4.30;;
4563;SDS011;2294;51.818;8.484;2024-02-21T09:48:00;12.07;;;3.90;;
4563;SDS011;2294;51.818;8.484;2024-02-21T09:50:34;12.53;;;4.60;;
4563;SDS011;2294;51.818;8.484;2024-02-21T09:53:03;10.20;;;5.10;;
4563;SDS011;2294;51.818;8.484;2024-02-21T09:55:32;15.83;;;5.30;;
4563;SDS011;2294;51.818;8.484;2024-02-21T09:58:00;16.00;;;5.27;;
4563;SDS011;2294;51.818;8.484;2024-02-21T10:00:28;13.00;;;4.47;;
4563;SDS011;2294;51.818;8.484;2024-02-21T10:02:55;19.13;;;5.30;;
4563;SDS011;2294;51.818;8.484;2024-02-21T10:05:22;8.13;;;5.40;;
4563;SDS011;2294;51.818;8.484;2024-02-21T10:07:51;13.70;;;5.73;;
4563;SDS011;2294;51.818;8.484;2024-02-21T10:10:19;10.27;;;6.10;;
4563;SDS011;2294;51.818;8.484;2024-02-21T10:12:50;11.00;;;6.60;;
4563;SDS011;2294;51.818;8.484;2024-02-21T10:15:19;11.03;;;6.07;;
4563;SDS011;2294;51.818;8.484;2024-02-21T10:17:48;14.70;;;6.27;;
4563;SDS011;2294;51.818;8.484;2024-02-21T10:20:16;12.93;;;6.23;;
4563;SDS011;2294;51.818;8.484;2024-02-21T10:22:43;16.07;;;7.30;;
4563;SDS011;2294;51.818;8.484;2024-02-21T10:25:12;15.90;;;6.57;;
4563;SDS011;2294;51.818;8.484;2024-02-21T10:27:39;10.93;;;5.97;;
4563;SDS011;2294;51.818;8.484;2024-02-21T10:30:07;20.10;;;6.70;;
4563;SDS011;2294;51.818;8.484;2024-02-21T10:32:35;13.97;;;6.63;;
4563;SDS011;2294;51.818;8.484;2024-02-21T10:35:02;11.33;;;6.70;;
4563;SDS011;2294;51.818;8.484;2024-02-21T10:37:30;13.27;;;6.07;;
4563;SDS011;2294;51.818;8.484;2024-02-21T10:39:57;12.07;;;6.17;;
4563;SDS011;2294;51.818;8.484;2024-02-21T10:42:28;7.53;;;5.10;;
4563;SDS011;2294;51.818;8.484;2024-02-21T10:44:59;13.97;;;5.60;;
4563;SDS011;2294;51.818;8.484;2024-02-21T10:47:29;11.10;;;5.23;;
4563;SDS011;2294;51.818;8.484;2024-02-21T10:50:02;13.80;;;5.60;;
4563;SDS011;2294;51.818;8.484;2024-02-21T10:52:32;16.10;;;5.60;;
4563;SDS011;2294;51.818;8.484;2024-02-21T10:55:03;13.37;;;6.13;;
4563;SDS011;2294;51.818;8.484;2024-02-21T10:57:32;11.53;;;5.60;;
4563;SDS011;2294;51.818;8.484;2024-02-21T10:59:59;8.67;;;5.10;;
4563;SDS011;2294;51.818;8.484;2024-02-21T11:02:28;17.60;;;4.77;;
4563;SDS011;2294;51.818;8.484;2024-02-21T11:04:56;15.43;;;5.20;;
4563;SDS011;2294;51.818;8.484;2024-02-21T11:07:24;10.87;;;5.07;;
4563;SDS011;2294;51.818;8.484;2024-02-21T11:09:51;14.17;;;4.60;;
4563;SDS011;2294;51.818;8.484;2024-02-21T11:12:20;7.20;;;4.13;;
4563;SDS011;2294;51.818;8.484;2024-02-21T11:14:49;15.70;;;5.00;;
4563;SDS011;2294;51.818;8.484;2024-02-21T11:17:16;11.70;;;3.93;;
4563;SDS011;2294;51.818;8.484;2024-02-21T11:19:44;11.30;;;4.43;;
4563;SDS011;2294;51.818;8.484;2024-02-21T11:22:14;10.00;;;3.63;;
4563;SDS011;2294;51.818;8.484;2024-02-21T11:24:41;9.07;;;2.90;;
4563;SDS011;2294;51.818;8.484;2024-02-21T11:27:09;9.33;;;2.57;;
4563;SDS011;2294;51.818;8.484;2024-02-21T11:29:39;8.60;;;3.37;;
4563;SDS011;2294;51.818;8.484;2024-02-21T11:32:10;6.77;;;2.67;;
4563;SDS011;2294;51.818;8.484;2024-02-21T11:34:37;5.70;;;2.43;;
4563;SDS011;2294;51.818;8.484;2024-02-21T11:37:12;10.90;;;2.73;;
4563;SDS011;2294;51.818;8.484;2024-02-21T11:39:40;5.20;;;2.47;;
4563;SDS011;2294;51.818;8.484;2024-02-21T11:42:08;6.93;;;3.07;;
4563;SDS011;2294;51.818;8.484;2024-02-21T11:44:36;8.23;;;2.20;;
4563;SDS011;2294;51.818;8.484;2024-02-21T11:47:04;7.60;;;2.07;;
4563;SDS011;2294;51.818;8.484;2024-02-21T11:49:35;9.10;;;1.80;;
4563;SDS011;2294;51.818;8.484;2024-02-21T11:52:03;7.10;;;2.30;;
4563;SDS011;2294;51.818;8.484;2024-02-21T11:54:30;5.27;;;2.10;;
4563;SDS011;2294;51.818;8.484;2024-02-21T11:56:57;4.43;;;1.70;;
4563;SDS011;2294;51.818;8.484;2024-02-21T11:59:25;12.73;;;2.30;;
4563;SDS011;2294;51.818;8.484;2024-02-21T12:01:52;7.70;;;1.97;;
4563;SDS011;2294;51.818;8.484;2024-02-21T12:04:19;5.97;;;1.87;;
4563;SDS011;2294;51.818;8.484;2024-02-21T12:06:50;9.20;;;2.30;;
4563;SDS011;2294;51.818;8.484;2024-02-21T12:09:22;8.70;;;2.50;;
4563;SDS011;2294;51.818;8.484;2024-02-21T12:11:56;6.60;;;2.47;;
4563;SDS011;2294;51.818;8.484;2024-02-21T12:14:24;9.00;;;2.00;;
4563;SDS011;2294;51.818;8.484;2024-02-21T12:16:51;6.30;;;2.23;;
4563;SDS011;2294;51.818;8.484;2024-02-21T12:19:19;5.13;;;2.30;;
4563;SDS011;2294;51.818;8.484;2024-02-21T12:21:47;7.70;;;2.57;;
4563;SDS011;2294;51.818;8.484;2024-02-21T12:24:17;7.83;;;2.37;;
4563;SDS011;2294;51.818;8.484;2024-02-21T12:26:45;7.00;;;2.67;;
4563;SDS011;2294;51.818;8.484;2024-02-21T12:29:12;8.50;;;2.80;;
4563;SDS011;2294;51.818;8.484;2024-02-21T12:31:39;13.27;;;2.53;;
4563;SDS011;2294;51.818;8.484;2024-02-21T12:34:07;5.90;;;2.53;;
4563;SDS011;2294;51.818;8.484;2024-02-21T12:36:35;11.80;;;2.70;;
4563;SDS011;2294;51.818;8.484;2024-02-21T12:39:02;5.87;;;2.57;;
4563;SDS011;2294;51.818;8.484;2024-02-21T12:41:31;5.70;;;2.50;;
4563;SDS011;2294;51.818;8.484;2024-02-21T12:44:00;8.97;;;3.03;;
4563;SDS011;2294;51.818;8.484;2024-02-21T12:46:28;4.73;;;2.53;;
4563;SDS011;2294;51.818;8.484;2024-02-21T12:48:56;9.43;;;2.50;;
4563;SDS011;2294;51.818;8.484;2024-02-21T12:51:23;3.93;;;2.50;;
4563;SDS011;2294;51.818;8.484;2024-02-21T12:53:56;8.50;;;2.40;;
4563;SDS011;2294;51.818;8.484;2024-02-21T12:56:37;8.00;;;2.70;;
4563;SDS011;2294;51.818;8.484;2024-02-21T12:59:05;10.10;;;3.00;;
4563;SDS011;2294;51.818;8.484;2024-02-21T13:01:34;4.43;;;2.60;;
4563;SDS011;2294;51.818;8.484;2024-02-21T13:04:01;8.87;;;3.07;;
4563;SDS011;2294;51.818;8.484;2024-02-21T13:06:33;6.50;;;2.63;;
4563;SDS011;2294;51.818;8.484;2024-02-21T13:09:02;8.03;;;3.30;;
4563;SDS011;2294;51.818;8.484;2024-02-21T13:11:33;9.20;;;3.37;;
4563;SDS011;2294;51.818;8.484;2024-02-21T13:14:02;7.30;;;2.50;;
4563;SDS011;2294;51.818;8.484;2024-02-21T13:16:29;8.60;;;2.80;;
4563;SDS011;2294;51.818;8.484;2024-02-21T13:18:56;5.87;;;2.53;;
4563;SDS011;2294;51.818;8.484;2024-02-21T13:21:23;7.07;;;3.23;;
4563;SDS011;2294;51.818;8.484;2024-02-21T13:23:50;6.70;;;3.20;;
4563;SDS011;2294;51.818;8.484;2024-02-21T13:26:18;9.00;;;2.60;;
4563;SDS011;2294;51.818;8.484;2024-02-21T13:28:45;7.60;;;2.53;;
4563;SDS011;2294;51.818;8.484;2024-02-21T13:31:14;11.00;;;2.63;;
4563;SDS011;2294;51.818;8.484;2024-02-21T13:33:42;8.87;;;2.33;;
4563;SDS011;2294;51.818;8.484;2024-02-21T13:36:10;9.60;;;2.70;;
4563;SDS011;2294;51.818;8.484;2024-02-21T13:38:37;12.40;;;3.00;;
4563;SDS011;2294;51.818;8.484;2024-02-21T13:41:05;3.87;;;2.70;;
4563;SDS011;2294;51.818;8.484;2024-02-21T13:43:32;6.50;;;2.67;;
4563;SDS011;2294;51.818;8.484;2024-02-21T13:46:02;6.67;;;2.63;;
4563;SDS011;2294;51.818;8.484;2024-02-21T13:48:31;10.97;;;2.57;;
4563;SDS011;2294;51.818;8.484;2024-02-21T13:50:59;8.67;;;3.03;;
4563;SDS011;2294;51.818;8.484;2024-02-21T13:53:27;12.33;;;3.00;;
4563;SDS011;2294;51.818;8.484;2024-02-21T13:55:54;4.83;;;2.27;;
4563;SDS011;2294;51.818;8.484;2024-02-21T13:58:21;10.80;;;3.33;;
4563;SDS011;2294;51.818;8.484;2024-02-21T14:00:50;5.37;;;2.87;;
4563;SDS011;2294;51.818;8.484;2024-02-21T14:03:17;7.20;;;2.67;;
4563;SDS011;2294;51.818;8.484;2024-02-21T14:05:46;7.13;;;2.30;;
4563;SDS011;2294;51.818;8.484;2024-02-21T14:08:14;6.03;;;2.57;;
4563;SDS011;2294;51.818;8.484;2024-02-21T14:10:41;4.23;;;1.87;;
4563;SDS011;2294;51.818;8.484;2024-02-21T14:13:08;12.13;;;2.43;;
4563;SDS011;2294;51.818;8.484;2024-02-21T14:15:36;8.27;;;2.83;;
4563;SDS011;2294;51.818;8.484;2024-02-21T14:18:06;11.10;;;2.57;;
4563;SDS011;2294;51.818;8.484;2024-02-21T14:20:34;6.03;;;2.70;;
4563;SDS011;2294;51.818;8.484;2024-02-21T14:23:03;10.40;;;2.63;;
4563;SDS011;2294;51.818;8.484;2024-02-21T14:25:30;5.60;;;2.27;;
4563;SDS011;2294;51.818;8.484;2024-02-21T14:27:58;7.23;;;2.63;;
4563;SDS011;2294;51.818;8.484;2024-02-21T14:30:26;9.03;;;3.00;;
4563;SDS011;2294;51.818;8.484;2024-02-21T14:32:53;8.13;;;2.50;;
4563;SDS011;2294;51.818;8.484;2024-02-21T14:35:20;13.13;;;2.90;;
4563;SDS011;2294;51.818;8.484;2024-02-21T14:37:48;11.30;;;2.70;;
4563;SDS011;2294;51.818;8.484;2024-02-21T14:40:16;13.73;;;2.80;;
4563;SDS011;2294;51.818;8.484;2024-02-21T14:42:44;4.47;;;2.33;;
4563;SDS011;2294;51.818;8.484;2024-02-21T14:45:11;7.73;;;2.90;;
4563;SDS011;2294;51.818;8.484;2024-02-21T14:47:39;5.80;;;2.50;;
4563;SDS011;2294;51.818;8.484;2024-02-21T14:50:06;9.70;;;2.80;;
4563;SDS011;2294;51.818;8.484;2024-02-21T14:52:33;8.57;;;2.80;;
4563;SDS011;2294;51.818;8.484;2024-02-21T14:55:01;7.10;;;2.73;;
4563;SDS011;2294;51.818;8.484;2024-02-21T14:57:30;10.40;;;2.30;;
4563;SDS011;2294;51.818;8.484;2024-02-21T14:59:57;7.60;;;2.40;;
4563;SDS011;2294;51.818;8.484;2024-02-21T15:02:24;9.00;;;2.30;;
4563;SDS011;2294;51.818;8.484;2024-02-21T15:04:52;4.87;;;2.13;;
4563;SDS011;2294;51.818;8.484;2024-02-21T15:07:20;6.20;;;2.53;;
4563;SDS011;2294;51.818;8.484;2024-02-21T15:09:49;6.10;;;2.73;;